KDET

Coleman A Young Municipal Airport

Detroit, Michigan, USA
KDET 221644Z 2217/2312 15014G22KT P6SM SCT100 OVC200 FM222300 17012KT P6SM BKN060 OVC090 WS015/20045KT FM230300 18011KT 2SM -FZRA BR BKN022 OVC040 WS015/21040KT FM230600 18010KT 3SM RA BR BKN012 OVC022
Issued Valid From Valid To
Jan-22 @ 16:44 UTC
(9 minutes ago)
Jan-22 @ 17:00 UTC
(in 7 minutes)
Jan-23 @ 12:00 UTC
(in 19 hours)
Jan-22 @ 17:00 to Jan-22 @ 23:00
KDET 221644Z 2217/2312 15014G22KT P6SM SCT100 OVC200
Wind Visibility Clouds
150° at 14 knots
 Gusting to 22 knots
Greater than 6 miles
  • Scattered at 10,000' AGL
  • Overcast at 20,000' AGL
From Jan-22 @ 23:00 to Jan-23 @ 03:00
FM222300 17012KT P6SM BKN060 OVC090 WS015/20045KT
Wind Visibility Clouds
170° at 12 knots
 Wind shear 1,500' AGL from 200° at 45 knots
Greater than 6 miles
  • Broken at 6,000' AGL
  • Overcast at 9,000' AGL
From Jan-23 @ 03:00 to Jan-23 @ 06:00
FM230300 18011KT 2SM -FZRA BR BKN022 OVC040 WS015/21040KT
Wind Visibility Clouds Conditions
180° at 11 knots
 Wind shear 1,500' AGL from 210° at 40 knots
2 miles
  • Broken at 2,200' AGL
  • Overcast at 4,000' AGL
  • Light Freezing
  • Light Rain
  • Mist
From Jan-23 @ 06:00 to Jan-23 @ 12:00
FM230600 18010KT 3SM RA BR BKN012 OVC022
Wind Visibility Clouds Conditions
180° at 10 knots 3 miles
  • Broken at 1,200' AGL
  • Overcast at 2,200' AGL
  • Rain
  • Mist
KDET 221644Z 2217/2312 15014G22KT P6SM SCT100 OVC200 FM222300 17012KT P6SM BKN060 OVC090 WS015/20045KT FM230300 18011KT 2SM -FZRA BR BKN022 OVC040 WS015/21040KT FM230600 18010KT 3SM RA BR BKN012 OVC022
Issued Jan-22 @ 16:44 UTC
(9 minutes ago)
Valid From Jan-22 @ 17:00 UTC
(in 7 minutes)
Valid To Jan-23 @ 12:00 UTC
(in 19 hours)
Jan-22 @ 17:00 - Jan-22 @ 23:00
Wind Visibility
150° at 14 knots
 Gusting to 22 knots
Greater than 6 miles
Clouds
  • Scattered at 10,000' AGL
  • Overcast at 20,000' AGL
From Jan-22 @ 23:00 - Jan-23 @ 03:00
Wind Visibility
170° at 12 knots Greater than 6 miles
Clouds
  • Broken at 6,000' AGL
  • Overcast at 9,000' AGL
From Jan-23 @ 03:00 - Jan-23 @ 06:00
Wind Visibility
180° at 11 knots 2 miles
Clouds
  • Broken at 2,200' AGL
  • Overcast at 4,000' AGL
Conditions
  • Light Freezing
  • Light Rain
  • Mist
From Jan-23 @ 06:00 - Jan-23 @ 12:00
Wind Visibility
180° at 10 knots 3 miles
Clouds
  • Broken at 1,200' AGL
  • Overcast at 2,200' AGL
Conditions
  • Rain
  • Mist